Time;durP1;ratioP1;P1;durP2;ratioP2;P2;SDS_P1;SDS_P2;PMS_P1;PMS_P2;Temp;Humidity;BMP_temperature;BMP_pressure;BME280_temperature;BME280_humidity;BME280_pressure;Samples;Min_cycle;Max_cycle;Signal;HPM_P1;HPM_P2
2023/03/21 00:00:47;;;;;;;11.90;10.90;;;;;;;10.54;62.37;92659.59;5071649;28;20257;-74
2023/03/21 00:03:15;;;;;;;12.33;11.23;;;;;;;10.49;62.23;92651.81;5071945;28;20186;-74
2023/03/21 00:05:42;;;;;;;13.07;11.97;;;;;;;10.45;62.05;92658.66;5071265;28;20303;-74
2023/03/21 00:08:08;;;;;;;11.80;10.80;;;;;;;10.42;63.29;92659.22;5071566;28;20189;-74
2023/03/21 00:10:33;;;;;;;13.67;12.53;;;;;;;10.23;63.25;92640.06;5071259;28;20226;-74
2023/03/21 00:12:59;;;;;;;13.97;12.63;;;;;;;10.37;64.16;92661.88;5071570;28;20201;-74
2023/03/21 00:15:26;;;;;;;13.43;12.13;;;;;;;10.28;65.04;92658.31;5071396;28;20317;-74
2023/03/21 00:17:57;;;;;;;18.97;13.07;;;;;;;10.13;64.37;92640.19;5071075;28;20215;-74
2023/03/21 00:20:22;;;;;;;15.30;13.53;;;;;;;10.13;63.80;92645.41;5070331;28;20767;-74
2023/03/21 00:22:48;;;;;;;14.47;12.97;;;;;;;10.23;63.15;92653.13;5070662;28;20234;-74
2023/03/21 00:25:13;;;;;;;15.17;13.47;;;;;;;10.13;63.04;92634.97;5071321;28;20305;-74
2023/03/21 00:27:39;;;;;;;15.90;13.37;;;;;;;10.20;63.70;92653.66;5071342;28;20222;-74
2023/03/21 00:30:05;;;;;;;14.73;13.33;;;;;;;10.11;64.59;92647.50;5071400;28;20233;-74
2023/03/21 00:32:30;;;;;;;14.93;12.77;;;;;;;10.07;64.48;92651.69;5070918;28;20215;-74
2023/03/21 00:34:55;;;;;;;14.30;12.80;;;;;;;9.97;64.74;92643.16;5070510;28;20271;-74
2023/03/21 00:37:21;;;;;;;14.93;13.23;;;;;;;10.16;64.11;92663.13;5071091;28;20210;-74
2023/03/21 00:39:48;;;;;;;17.23;14.60;;;;;;;10.03;64.89;92661.09;5070305;28;20271;-74
2023/03/21 00:42:17;;;;;;;18.67;13.57;;;;;;;9.96;65.50;92655.41;5071116;28;20186;-74
2023/03/21 00:44:43;;;;;;;16.33;12.87;;;;;;;9.92;64.08;92662.22;5070262;28;20251;-74
2023/03/21 00:47:11;;;;;;;13.27;12.07;;;;;;;9.88;63.30;92666.44;5070328;28;20185;-74
2023/03/21 00:49:37;;;;;;;14.67;13.17;;;;;;;9.81;64.98;92660.75;5070371;28;20284;-73
2023/03/21 00:52:08;;;;;;;12.80;11.60;;;;;;;9.75;64.72;92648.78;5070949;28;20190;-74
2023/03/21 00:54:35;;;;;;;16.20;14.47;;;;;;;9.71;66.24;92661.59;5069682;28;20255;-74
2023/03/21 00:57:02;;;;;;;13.60;12.33;;;;;;;9.70;65.73;92656.66;5070685;28;20245;-74
2023/03/21 00:59:28;;;;;;;15.43;12.20;;;;;;;9.48;66.73;92638.03;5070339;28;20269;-75
2023/03/21 01:01:54;;;;;;;14.00;12.70;;;;;;;9.45;66.32;92639.34;5070794;28;20186;-74
2023/03/21 01:04:25;;;;;;;12.47;11.53;;;;;;;9.40;66.76;92636.00;5068581;28;20194;-74
2023/03/21 01:06:52;;;;;;;13.93;12.63;;;;;;;9.43;65.82;92651.88;5070242;28;20170;-74
2023/03/21 01:09:20;;;;;;;13.90;12.50;;;;;;;9.31;65.94;92648.81;5069976;28;20179;-72
2023/03/21 01:11:47;;;;;;;14.87;11.83;;;;;;;9.28;66.70;92649.34;5070533;28;20200;-74
2023/03/21 01:14:13;;;;;;;13.20;11.97;;;;;;;9.27;66.71;92652.22;5070124;28;20211;-74
2023/03/21 01:16:39;;;;;;;13.90;12.33;;;;;;;9.09;66.97;92634.63;5070506;28;20253;-74
2023/03/21 01:19:05;;;;;;;11.80;10.90;;;;;;;9.11;67.48;92635.13;5070384;28;20216;-74
2023/03/21 01:21:32;;;;;;;13.63;12.20;;;;;;;8.94;68.13;92626.88;5070260;28;20458;-73
2023/03/21 01:23:57;;;;;;;12.77;11.80;;;;;;;8.94;68.42;92634.69;5070244;28;20190;-73
2023/03/21 01:26:23;;;;;;;12.20;11.20;;;;;;;8.85;68.19;92644.09;5070235;28;20349;-74
2023/03/21 01:28:48;;;;;;;12.40;11.47;;;;;;;8.83;68.90;92635.75;5070079;28;20198;-73
2023/03/21 01:31:16;;;;;;;13.83;12.83;;;;;;;8.76;69.87;92645.69;5068246;28;21067;-73
2023/03/21 01:33:42;;;;;;;12.13;11.20;;;;;;;8.83;69.05;92640.97;5069159;28;20204;-74
2023/03/21 01:36:10;;;;;;;12.87;11.37;;;;;;;8.85;68.27;92638.88;5069891;28;20229;-73
2023/03/21 01:38:36;;;;;;;11.80;10.80;;;;;;;8.89;68.05;92647.72;5069577;28;20286;-73
2023/03/21 01:41:01;;;;;;;12.37;11.40;;;;;;;8.94;67.87;92647.69;5069735;28;20244;-73
2023/03/21 01:43:29;;;;;;;13.53;12.63;;;;;;;8.90;68.05;92642.25;5069695;28;20194;-73
2023/03/21 01:46:22;;;;;;;12.73;11.83;;;;;;;9.00;68.09;92650.03;5068362;28;20249;-74
2023/03/21 01:48:55;;;;;;;12.93;11.67;;;;;;;9.08;67.65;92649.47;5069399;28;20188;-73
2023/03/21 01:51:22;;;;;;;12.53;11.57;;;;;;;9.12;67.34;92647.13;5069534;28;20229;-73
2023/03/21 01:53:48;;;;;;;13.33;12.00;;;;;;;9.02;68.04;92645.34;5069716;28;20186;-74
2023/03/21 01:56:26;;;;;;;16.37;13.10;;;;;;;9.00;68.70;92636.22;5069832;28;20999;-74
2023/03/21 01:58:55;;;;;;;13.53;12.30;;;;;;;8.99;68.32;92642.47;5070048;28;20307;-74
2023/03/21 02:01:21;;;;;;;13.03;11.90;;;;;;;8.91;68.59;92640.44;5069416;28;20252;-73
2023/03/21 02:03:49;;;;;;;12.57;11.47;;;;;;;8.91;68.58;92638.59;5069726;28;20190;-73
2023/03/21 02:06:19;;;;;;;14.03;12.70;;;;;;;8.67;68.20;92610.88;5066675;28;20228;-73
2023/03/21 02:08:45;;;;;;;13.07;11.97;;;;;;;8.83;68.62;92640.97;5068850;28;20209;-73
2023/03/21 02:11:11;;;;;;;12.70;11.70;;;;;;;8.80;68.03;92634.50;5068667;28;20232;-73
2023/03/21 02:13:37;;;;;;;13.17;12.10;;;;;;;8.36;68.69;92589.38;5068226;28;20187;-73
2023/03/21 02:16:08;;;;;;;11.87;10.97;;;;;;;8.68;68.89;92633.22;5067989;28;20221;-74
2023/03/21 02:19:02;;;;;;;12.10;10.90;;;;;;;8.43;69.01;92602.09;5069096;28;20209;-74
2023/03/21 02:21:39;;;;;;;11.87;10.87;;;;;;;8.64;69.16;92637.44;5066919;28;20419;-73
2023/03/21 02:24:24;;;;;;;13.70;10.80;;;;;;;8.53;69.50;92635.91;5068182;28;20991;-73
2023/03/21 02:26:55;;;;;;;12.77;11.67;;;;;;;8.42;70.54;92629.91;5048360;28;20221;-74
2023/03/21 02:29:45;;;;;;;12.53;11.30;;;;;;;8.44;69.28;92627.06;5049313;28;20207;-73
2023/03/21 02:32:12;;;;;;;11.47;10.43;;;;;;;8.57;68.61;92623.91;5067819;28;21196;-74
2023/03/21 02:34:43;;;;;;;11.50;10.70;;;;;;;8.54;68.23;92627.81;5068568;28;20240;-73
2023/03/21 02:37:28;;;;;;;11.60;10.70;;;;;;;8.58;68.02;92625.44;5068632;28;20192;-74
2023/03/21 02:40:11;;;;;;;18.00;11.57;;;;;;;8.51;68.40;92623.16;5067971;28;20232;-73
2023/03/21 02:42:54;;;;;;;13.33;12.17;;;;;;;8.50;67.64;92615.63;5067971;28;20178;-73
2023/03/21 02:45:24;;;;;;;13.20;11.90;;;;;;;8.47;67.72;92623.94;5058558;28;20246;-73
2023/03/21 02:48:04;;;;;;;13.00;11.97;;;;;;;8.39;68.99;92624.50;5048052;28;20243;-74
2023/03/21 02:50:32;;;;;;;10.63;9.83;;;;;;;8.40;69.33;92615.63;5059159;28;20224;-74
2023/03/21 02:53:01;;;;;;;10.87;10.00;;;;;;;8.32;69.52;92609.16;5067972;28;20200;-74
2023/03/21 02:55:30;;;;;;;10.90;9.97;;;;;;;8.37;69.14;92613.56;5067748;28;20263;-73
2023/03/21 02:57:58;;;;;;;12.80;10.77;;;;;;;8.35;68.38;92613.81;5068590;28;20260;-73
2023/03/21 03:00:31;;;;;;;10.97;10.33;;;;;;;8.33;67.62;92605.50;5067975;28;20221;-70
2023/03/21 03:02:56;;;;;;;11.53;10.63;;;;;;;8.38;66.67;92609.91;5068737;28;20178;-69
2023/03/21 03:05:25;;;;;;;12.27;11.27;;;;;;;8.51;67.10;92614.56;5068536;28;20267;-70
2023/03/21 03:08:14;;;;;;;10.70;10.00;;;;;;;8.44;66.44;92595.84;5068217;28;20215;-71
2023/03/21 03:10:46;;;;;;;12.07;11.10;;;;;;;8.61;65.66;92617.91;5067870;28;20240;-71
2023/03/21 03:13:49;;;;;;;11.77;10.93;;;;;;;8.55;66.95;92611.16;5068158;28;20257;-70
2023/03/21 03:16:30;;;;;;;11.37;10.47;;;;;;;8.47;68.20;92613.53;5069234;28;20224;-71
2023/03/21 03:18:59;;;;;;;12.43;11.30;;;;;;;8.43;68.50;92625.50;5072539;28;20280;-70
2023/03/21 03:21:42;;;;;;;16.03;12.27;;;;;;;8.60;66.86;92620.75;5072328;28;20233;-70
2023/03/21 03:24:19;;;;;;;11.33;10.37;;;;;;;8.55;67.96;92623.38;5071485;28;20241;-70
2023/03/21 03:27:03;;;;;;;12.47;11.43;;;;;;;8.37;68.74;92622.16;5072136;28;21054;-70
2023/03/21 03:29:33;;;;;;;12.30;11.30;;;;;;;8.43;68.60;92622.91;5071895;28;20205;-70
2023/03/21 03:32:09;;;;;;;11.87;10.80;;;;;;;8.35;68.69;92623.44;5072356;28;20209;-71
2023/03/21 03:34:39;;;;;;;12.83;11.70;;;;;;;8.32;68.72;92618.78;5071575;28;20288;-71
2023/03/21 03:37:08;;;;;;;12.53;11.50;;;;;;;8.31;68.61;92627.63;5072278;28;20207;-69
2023/03/21 03:39:45;;;;;;;11.97;11.07;;;;;;;8.27;69.30;92621.38;5071807;28;20221;-71
2023/03/21 03:42:18;;;;;;;13.03;11.70;;;;;;;8.20;69.98;92624.25;5071787;28;20192;-71
2023/03/21 03:44:44;;;;;;;12.93;11.80;;;;;;;8.17;69.78;92625.53;5071651;28;20245;-70
2023/03/21 03:47:16;;;;;;;12.20;11.03;;;;;;;8.09;70.37;92620.84;5072633;28;20177;-71
2023/03/21 03:49:48;;;;;;;12.53;11.53;;;;;;;8.12;70.63;92635.16;5071438;28;20233;-70
2023/03/21 03:52:26;;;;;;;12.23;11.10;;;;;;;7.94;71.08;92623.50;5071622;28;20185;-70
2023/03/21 03:54:53;;;;;;;14.43;13.33;;;;;;;8.03;71.42;92637.50;5070811;28;20213;-70
2023/03/21 03:57:20;;;;;;;13.03;11.83;;;;;;;7.82;72.20;92614.41;5070221;28;20209;-71
2023/03/21 03:59:46;;;;;;;13.90;12.67;;;;;;;7.93;72.77;92624.53;5071855;28;20220;-71
2023/03/21 04:02:13;;;;;;;13.83;12.63;;;;;;;7.88;72.80;92611.53;5071462;28;20185;-71
2023/03/21 04:04:38;;;;;;;13.10;11.70;;;;;;;7.89;73.15;92615.69;5071417;28;20231;-69
2023/03/21 04:07:05;;;;;;;12.37;11.23;;;;;;;7.85;73.85;92619.88;5072103;28;20189;-71
2023/03/21 04:09:31;;;;;;;12.90;11.53;;;;;;;7.84;73.97;92604.53;5071632;28;20185;-70
2023/03/21 04:11:57;;;;;;;13.30;11.67;;;;;;;7.97;73.88;92615.16;5072053;28;20177;-71
2023/03/21 04:14:23;;;;;;;13.90;12.60;;;;;;;7.99;73.89;92615.69;5070718;28;20253;-71
2023/03/21 04:16:49;;;;;;;14.17;12.87;;;;;;;7.87;74.57;92612.59;5071497;28;20751;-70
2023/03/21 04:19:15;;;;;;;13.30;12.10;;;;;;;7.74;74.88;92602.72;5071062;28;20217;-70
2023/03/21 04:21:40;;;;;;;12.60;11.20;;;;;;;7.72;75.36;92602.19;5071315;28;20197;-69
2023/03/21 04:24:06;;;;;;;11.83;10.93;;;;;;;7.63;75.61;92606.34;5071677;28;20260;-70
2023/03/21 04:26:32;;;;;;;13.07;11.73;;;;;;;7.60;74.83;92588.69;5071249;28;20273;-70
2023/03/21 04:28:59;;;;;;;11.53;10.83;;;;;;;7.67;74.21;92597.00;5071082;28;20201;-69
2023/03/21 04:31:27;;;;;;;12.73;11.43;;;;;;;7.71;73.31;92598.03;5068779;28;20213;-72
2023/03/21 04:33:54;;;;;;;12.63;11.53;;;;;;;7.74;73.48;92602.72;5071102;28;20249;-71
2023/03/21 04:36:37;;;;;;;11.57;10.67;;;;;;;7.64;73.66;92602.72;5070574;28;20216;-70
2023/03/21 04:39:10;;;;;;;12.77;11.73;;;;;;;7.74;74.19;92607.13;5069600;28;20267;-71
2023/03/21 04:41:36;;;;;;;11.17;10.27;;;;;;;7.63;72.88;92602.97;5070482;28;20201;-70
2023/03/21 04:44:02;;;;;;;10.87;10.07;;;;;;;7.77;71.45;92609.19;5070327;28;20186;-70
2023/03/21 04:46:27;;;;;;;12.43;11.33;;;;;;;7.74;71.84;92612.31;5069385;28;20233;-70
2023/03/21 04:48:53;;;;;;;11.50;10.70;;;;;;;7.74;73.20;92617.53;5069921;28;20261;-75
2023/03/21 04:51:18;;;;;;;11.53;10.73;;;;;;;7.83;73.01;92615.94;5066986;28;20244;-71
2023/03/21 04:53:45;;;;;;;11.33;10.53;;;;;;;7.82;71.81;92609.19;5069808;28;20188;-72
2023/03/21 04:56:11;;;;;;;12.37;11.23;;;;;;;7.99;72.03;92615.69;5068305;28;21035;-72
2023/03/21 04:58:39;;;;;;;12.93;11.93;;;;;;;8.07;72.42;92612.56;5069279;28;20253;-71
2023/03/21 05:01:05;;;;;;;11.83;10.93;;;;;;;8.13;72.46;92624.50;5068050;28;20209;-72
2023/03/21 05:03:33;;;;;;;12.10;11.13;;;;;;;8.23;72.49;92628.94;5070844;28;20193;-70
2023/03/21 05:06:02;;;;;;;12.00;11.03;;;;;;;8.20;72.82;92622.41;5066016;28;20299;-69
2023/03/21 05:08:27;;;;;;;11.77;11.07;;;;;;;8.19;73.29;92626.06;5068441;28;20579;-67
2023/03/21 05:10:52;;;;;;;11.53;10.67;;;;;;;8.29;73.20;92619.28;5068619;28;20213;-69
2023/03/21 05:13:18;;;;;;;12.87;11.77;;;;;;;8.32;73.15;92618.78;5069164;28;20197;-68
2023/03/21 05:15:43;;;;;;;12.00;10.80;;;;;;;8.43;72.85;92620.31;5069273;28;20278;-69
2023/03/21 05:18:12;;;;;;;11.97;11.07;;;;;;;8.47;72.82;92621.34;5068415;28;20225;-67
2023/03/21 05:20:41;;;;;;;11.57;10.67;;;;;;;8.51;72.79;92622.38;5068163;28;20231;-67
2023/03/21 05:23:09;;;;;;;13.10;11.93;;;;;;;8.53;73.16;92636.66;5068352;28;20203;-71
2023/03/21 05:25:38;;;;;;;12.30;11.40;;;;;;;8.49;72.77;92625.22;5068740;28;20255;-72
2023/03/21 05:28:06;;;;;;;13.07;11.73;;;;;;;8.87;72.12;92636.81;5068654;28;20185;-69
2023/03/21 05:30:32;;;;;;;13.30;12.13;;;;;;;8.94;71.46;92634.69;5069338;28;20274;-72
2023/03/21 05:32:57;;;;;;;15.40;12.30;;;;;;;9.08;71.06;92638.25;5069297;28;20253;-71
2023/03/21 05:35:23;;;;;;;12.40;11.60;;;;;;;9.30;77.41;92630.84;5068835;28;20269;-71
2023/03/21 05:37:48;;;;;;;12.93;11.93;;;;;;;9.50;73.36;92636.72;5069321;28;20212;-77
2023/03/21 05:40:14;;;;;;;13.83;12.30;;;;;;;9.61;70.56;92638.22;5068113;28;20222;-75
2023/03/21 05:42:39;;;;;;;13.17;11.77;;;;;;;9.71;69.59;92635.53;5069581;28;20250;-74
2023/03/21 05:45:05;;;;;;;13.37;12.20;;;;;;;9.76;68.68;92621.66;5069001;28;20238;-74
2023/03/21 05:47:30;;;;;;;13.80;12.70;;;;;;;9.74;67.26;92626.41;5069340;28;20193;-74
2023/03/21 05:49:56;;;;;;;13.60;12.40;;;;;;;9.95;66.77;92637.41;5068779;28;20293;-74
2023/03/21 05:52:22;;;;;;;14.93;12.83;;;;;;;10.11;66.51;92621.41;5068616;28;20220;-75
2023/03/21 05:54:47;;;;;;;14.23;12.97;;;;;;;10.51;65.07;92620.22;5066687;28;20312;-75
2023/03/21 05:57:13;;;;;;;13.83;12.07;;;;;;;10.71;63.29;92628.63;5068719;28;20727;-75
2023/03/21 05:59:38;;;;;;;14.77;13.23;;;;;;;10.86;63.59;92618.00;5067441;28;20235;-74
2023/03/21 06:02:04;;;;;;;12.70;11.17;;;;;;;11.10;62.73;92616.13;5068137;28;20229;-75
2023/03/21 06:04:29;;;;;;;13.03;11.70;;;;;;;11.32;62.13;92616.38;5068286;28;20181;-74
2023/03/21 06:06:55;;;;;;;13.73;12.53;;;;;;;11.48;61.55;92608.31;5069065;28;20193;-74
2023/03/21 06:09:21;;;;;;;14.17;12.77;;;;;;;11.66;61.10;92618.03;5068909;28;20201;-75
2023/03/21 06:11:49;;;;;;;12.83;11.63;;;;;;;11.77;61.08;92609.72;5069455;28;20205;-74
2023/03/21 06:14:15;;;;;;;12.70;11.57;;;;;;;11.91;60.78;92607.16;5068971;28;20186;-75
2023/03/21 06:16:41;;;;;;;12.87;11.60;;;;;;;11.61;60.27;92587.44;5069459;28;20178;-74
2023/03/21 06:19:06;;;;;;;12.67;11.03;;;;;;;12.02;60.04;92603.31;5069332;28;20213;-75
2023/03/21 06:21:31;;;;;;;13.93;12.60;;;;;;;11.74;62.57;92597.22;5068763;28;20229;-75
2023/03/21 06:23:57;;;;;;;11.87;10.73;;;;;;;11.89;62.13;92588.38;5068830;28;20223;-75
2023/03/21 06:26:22;;;;;;;12.10;10.93;;;;;;;12.27;60.10;92589.78;5068648;28;20219;-75
2023/03/21 06:28:49;;;;;;;12.27;11.17;;;;;;;12.58;59.30;92596.03;5069322;28;20196;-75
2023/03/21 06:31:14;;;;;;;14.03;11.37;;;;;;;12.74;57.28;92592.06;5069065;28;20248;-74
2023/03/21 06:33:40;;;;;;;12.90;11.87;;;;;;;12.91;55.94;92605.34;5069224;28;20181;-75
2023/03/21 06:36:06;;;;;;;12.80;11.47;;;;;;;12.79;55.84;92566.53;5068895;28;20209;-75
2023/03/21 06:38:31;;;;;;;13.63;10.50;;;;;;;13.31;56.14;92603.78;5066905;28;20708;-75
2023/03/21 06:40:57;;;;;;;12.07;10.93;;;;;;;13.28;57.13;92602.53;5068268;28;20225;-75
2023/03/21 06:43:22;;;;;;;13.03;11.83;;;;;;;13.32;57.82;92614.00;5069162;28;20245;-76
2023/03/21 06:45:47;;;;;;;15.10;12.37;;;;;;;13.33;58.78;92601.63;5067089;28;20228;-75
2023/03/21 06:48:13;;;;;;;13.63;12.33;;;;;;;13.48;57.52;92614.44;5069476;28;20193;-75
2023/03/21 06:50:39;;;;;;;16.27;14.57;;;;;;;13.06;58.69;92602.44;5067935;28;20221;-75
2023/03/21 06:53:04;;;;;;;15.07;13.33;;;;;;;13.29;56.84;92626.91;5069175;28;20185;-75
2023/03/21 06:55:30;;;;;;;16.97;15.17;;;;;;;13.32;56.21;92621.84;5068157;28;20207;-75
2023/03/21 06:57:56;;;;;;;25.37;15.13;;;;;;;13.56;56.17;92627.63;5068748;28;20201;-75
2023/03/21 07:00:22;;;;;;;17.27;15.47;;;;;;;13.36;56.84;92620.19;5067713;28;20257;-75
2023/03/21 07:02:48;;;;;;;15.40;13.87;;;;;;;13.67;55.91;92628.94;5068852;28;20178;-75
2023/03/21 07:05:15;;;;;;;16.97;13.37;;;;;;;13.28;58.53;92630.56;5068351;28;20225;-75
2023/03/21 07:07:41;;;;;;;17.07;15.27;;;;;;;13.08;58.98;92625.75;5068141;28;20185;-74
2023/03/21 07:10:07;;;;;;;15.80;14.43;;;;;;;13.77;55.09;92625.31;5068474;28;20237;-75
2023/03/21 07:12:34;;;;;;;14.83;13.30;;;;;;;13.22;54.90;92627.28;5067928;28;20181;-75
2023/03/21 07:15:00;;;;;;;14.97;13.37;;;;;;;13.31;55.51;92637.88;5067131;28;20249;-75
2023/03/21 07:17:26;;;;;;;14.67;12.83;;;;;;;13.22;55.80;92640.41;5068795;28;20248;-75
2023/03/21 07:19:51;;;;;;;15.53;13.93;;;;;;;13.82;53.97;92643.59;5067078;28;20240;-74
2023/03/21 07:22:16;;;;;;;15.17;13.13;;;;;;;13.55;54.06;92628.69;5068951;28;20192;-74
2023/03/21 07:24:42;;;;;;;15.57;14.13;;;;;;;13.31;54.86;92636.00;5067151;28;20240;-75
2023/03/21 07:27:07;;;;;;;15.97;14.33;;;;;;;13.45;54.62;92628.16;5068623;28;20186;-75
2023/03/21 07:29:33;;;;;;;16.80;15.00;;;;;;;13.33;54.62;92617.38;5068891;28;20700;-74
2023/03/21 07:31:59;;;;;;;16.60;14.90;;;;;;;13.17;55.26;92627.38;5068034;28;20200;-75
2023/03/21 07:34:26;;;;;;;20.23;14.23;;;;;;;13.56;54.26;92643.34;5067605;28;20284;-75
2023/03/21 07:36:51;;;;;;;23.80;17.30;;;;;;;13.70;54.07;92636.22;5068352;28;20178;-74
2023/03/21 07:39:18;;;;;;;24.40;15.47;;;;;;;13.67;54.59;92633.41;5067693;28;20247;-75
2023/03/21 07:41:43;;;;;;;21.83;15.53;;;;;;;14.06;52.58;92629.09;5068422;28;20178;-75
2023/03/21 07:44:09;;;;;;;18.03;16.20;;;;;;;13.91;52.97;92629.47;5068067;28;20197;-74
2023/03/21 07:46:35;;;;;;;16.60;14.93;;;;;;;13.79;54.24;92631.06;5068083;28;20221;-75
2023/03/21 07:49:00;;;;;;;18.37;16.00;;;;;;;13.69;55.20;92636.50;5068387;28;20257;-75
2023/03/21 07:51:25;;;;;;;17.13;15.10;;;;;;;14.36;51.85;92628.41;5067683;28;20228;-75
2023/03/21 07:53:51;;;;;;;25.03;16.70;;;;;;;13.64;53.68;92641.88;5067613;28;20185;-75
2023/03/21 07:56:16;;;;;;;23.50;16.10;;;;;;;13.65;54.04;92646.06;5067338;28;20225;-74
2023/03/21 07:58:42;;;;;;;22.57;16.40;;;;;;;13.80;54.10;92638.63;5068025;28;20246;-74
2023/03/21 08:01:07;;;;;;;22.27;15.60;;;;;;;14.13;53.33;92632.06;5068657;28;20223;-75
2023/03/21 08:03:33;;;;;;;20.47;17.80;;;;;;;13.61;54.69;92643.25;5068572;28;20181;-74
2023/03/21 08:06:00;;;;;;;23.20;17.07;;;;;;;13.61;53.89;92611.78;5071139;28;20232;-74
2023/03/21 08:08:26;;;;;;;21.43;16.23;;;;;;;14.07;54.31;92641.13;5070298;28;20189;-74
2023/03/21 08:10:51;;;;;;;19.40;17.37;;;;;;;14.37;53.06;92645.69;5071255;28;20213;-75
2023/03/21 08:13:16;;;;;;;19.73;15.40;;;;;;;13.95;53.27;92629.63;5069724;28;20192;-75
2023/03/21 08:15:42;;;;;;;21.80;15.43;;;;;;;14.25;51.99;92632.34;5070372;28;20925;-75
2023/03/21 08:18:09;;;;;;;17.40;15.60;;;;;;;14.34;51.84;92642.88;5071309;28;20216;-74
2023/03/21 08:20:35;;;;;;;22.60;15.37;;;;;;;14.34;51.91;92638.41;5071278;28;20288;-75
2023/03/21 08:23:00;;;;;;;19.97;16.23;;;;;;;14.06;54.14;92636.97;5071200;28;20177;-75
2023/03/21 08:25:26;;;;;;;22.73;15.23;;;;;;;14.34;52.02;92625.28;5070620;28;20252;-74
2023/03/21 08:27:51;;;;;;;19.30;15.80;;;;;;;14.43;51.24;92625.31;5070564;28;20731;-74
2023/03/21 08:30:20;;;;;;;17.50;15.50;;;;;;;14.69;50.75;92631.50;5072061;28;20233;-75
2023/03/21 08:32:46;;;;;;;20.03;15.30;;;;;;;14.89;50.11;92620.44;5070553;28;20896;-75
2023/03/21 08:35:14;;;;;;;17.23;15.43;;;;;;;14.98;49.48;92631.78;5069834;28;20229;-75
2023/03/21 08:37:41;;;;;;;16.33;14.67;;;;;;;14.30;51.67;92634.06;5070752;28;20197;-75
2023/03/21 08:40:12;;;;;;;18.50;14.00;;;;;;;14.38;50.88;92628.84;5070663;28;20213;-74
2023/03/21 08:42:39;;;;;;;19.97;15.60;;;;;;;14.18;51.64;92624.06;5071018;28;20197;-75
2023/03/21 08:45:05;;;;;;;17.43;13.73;;;;;;;15.22;48.83;92636.63;5070511;28;20260;-75
2023/03/21 08:47:31;;;;;;;17.47;14.13;;;;;;;15.02;49.62;92632.69;5070608;28;20204;-75
2023/03/21 08:49:57;;;;;;;14.87;13.37;;;;;;;15.39;47.38;92634.84;5070431;28;20249;-75
2023/03/21 08:52:23;;;;;;;17.07;14.17;;;;;;;15.30;47.23;92634.00;5070360;28;20185;-74
2023/03/21 08:54:48;;;;;;;17.27;14.40;;;;;;;15.23;47.58;92625.81;5070215;28;20232;-75
2023/03/21 08:57:13;;;;;;;15.70;14.23;;;;;;;15.32;46.70;92633.72;5071187;28;20185;-75
2023/03/21 08:59:39;;;;;;;15.73;13.97;;;;;;;15.35;47.15;92625.19;5071192;28;20237;-74
2023/03/21 09:02:06;;;;;;;16.63;13.83;;;;;;;15.50;45.69;92622.19;5071238;28;20185;-74
2023/03/21 09:04:31;;;;;;;13.93;12.73;;;;;;;14.98;45.37;92626.50;5069659;28;20225;-75
2023/03/21 09:07:00;;;;;;;16.30;14.60;;;;;;;15.20;46.66;92628.28;5070794;28;20207;-75
2023/03/21 09:09:26;;;;;;;13.53;12.37;;;;;;;15.01;45.45;92619.84;5069860;28;20193;-74
2023/03/21 09:11:52;;;;;;;16.53;13.63;;;;;;;15.09;45.64;92611.22;5070319;28;20197;-74
2023/03/21 09:14:17;;;;;;;17.93;11.93;;;;;;;15.45;44.62;92619.69;5069908;28;20200;-74
2023/03/21 09:16:42;;;;;;;18.73;14.10;;;;;;;15.39;44.87;92611.16;5069654;28;20253;-75
2023/03/21 09:19:08;;;;;;;15.07;13.10;;;;;;;15.48;45.44;92609.34;5070909;28;20213;-75
2023/03/21 09:21:34;;;;;;;17.63;13.33;;;;;;;15.67;44.64;92601.91;5069974;28;20225;-75
2023/03/21 09:24:01;;;;;;;14.90;13.50;;;;;;;15.68;44.43;92607.94;5069841;28;20186;-75
2023/03/21 09:26:27;;;;;;;20.77;15.10;;;;;;;15.69;43.64;92594.47;5069337;28;20259;-74
2023/03/21 09:28:54;;;;;;;21.73;14.27;;;;;;;15.67;43.79;92591.38;5070301;28;20185;-75
2023/03/21 09:31:21;;;;;;;15.77;14.23;;;;;;;15.75;43.79;92600.38;5070410;28;20217;-74
2023/03/21 09:33:48;;;;;;;16.03;14.53;;;;;;;15.18;44.92;92593.59;5068048;28;20209;-75
2023/03/21 09:36:14;;;;;;;15.57;13.90;;;;;;;15.68;44.04;92589.53;5069455;28;20240;-74
2023/03/21 09:38:41;;;;;;;16.47;14.77;;;;;;;15.67;42.97;92533.47;5070142;28;20213;-74
2023/03/21 09:41:16;;;;;;;17.27;14.63;;;;;;;16.18;42.31;92580.03;5070001;28;20237;-74
2023/03/21 09:43:57;;;;;;;15.73;14.10;;;;;;;16.28;42.50;92579.69;5070286;28;20185;-74
2023/03/21 09:46:38;;;;;;;18.47;13.73;;;;;;;16.27;42.51;92578.16;5069349;28;20233;-74
2023/03/21 09:49:10;;;;;;;18.10;13.73;;;;;;;16.32;42.62;92585.91;5068699;28;20193;-74
2023/03/21 09:51:40;;;;;;;17.97;13.30;;;;;;;16.01;42.02;92577.44;5069386;28;20212;-74
2023/03/21 09:54:31;;;;;;;14.40;13.00;;;;;;;15.93;44.24;92579.00;5069758;28;20208;-75
2023/03/21 09:57:10;;;;;;;17.53;13.30;;;;;;;16.30;42.71;92580.16;5069801;28;20224;-75
2023/03/21 09:59:41;;;;;;;15.23;12.87;;;;;;;16.58;42.57;92578.72;5069526;28;20213;-75
2023/03/21 10:02:19;;;;;;;14.90;13.40;;;;;;;16.65;41.90;92584.28;5069728;28;20190;-75
2023/03/21 10:04:45;;;;;;;14.47;13.07;;;;;;;16.78;41.04;92574.63;5069133;28;20225;-75
2023/03/21 10:07:18;;;;;;;16.37;13.17;;;;;;;16.90;40.93;92572.84;5069387;28;20208;-74
2023/03/21 10:09:45;;;;;;;15.07;13.30;;;;;;;16.77;41.44;92560.66;5067978;28;20254;-75
2023/03/21 10:12:20;;;;;;;18.27;14.73;;;;;;;17.16;41.43;92565.59;5069634;28;20189;-75
2023/03/21 10:14:56;;;;;;;16.87;13.73;;;;;;;17.40;39.14;92560.47;5068578;28;20232;-75
2023/03/21 10:17:53;;;;;;;14.70;13.17;;;;;;;17.13;38.63;92558.31;5069440;28;20201;-75
2023/03/21 10:20:22;;;;;;;13.03;11.83;;;;;;;17.12;39.21;92554.13;5068994;28;20236;-75
2023/03/21 10:22:50;;;;;;;14.13;12.90;;;;;;;16.88;38.79;92551.31;5068326;28;20245;-75
2023/03/21 10:25:25;;;;;;;13.07;11.57;;;;;;;17.11;39.27;92560.50;5068015;28;20225;-74
2023/03/21 10:27:51;;;;;;;13.73;12.43;;;;;;;17.00;39.07;92517.13;5068731;28;20188;-75
2023/03/21 10:30:45;;;;;;;14.90;13.30;;;;;;;17.14;38.96;92554.59;5069092;28;20225;-74
2023/03/21 10:33:14;;;;;;;13.53;12.13;;;;;;;17.01;38.86;92557.47;5068718;28;20213;-75
2023/03/21 10:35:45;;;;;;;13.73;12.40;;;;;;;16.80;39.68;92557.41;5067671;28;20228;-75
2023/03/21 10:38:23;;;;;;;12.37;11.30;;;;;;;16.75;39.79;92562.06;5068085;28;20277;-75
2023/03/21 10:40:49;;;;;;;14.80;12.93;;;;;;;17.12;38.88;92569.94;5067205;28;20233;-75
2023/03/21 10:43:36;;;;;;;15.73;13.50;;;;;;;17.32;38.49;92563.94;5069276;28;20235;-74
2023/03/21 10:46:28;;;;;;;14.90;13.33;;;;;;;17.29;38.72;92566.44;5066239;28;20221;-75
2023/03/21 10:48:53;;;;;;;17.10;12.33;;;;;;;17.14;38.43;92549.31;5066180;28;20194;-75
2023/03/21 10:51:24;;;;;;;14.10;12.80;;;;;;;17.23;37.94;92563.22;5068518;28;20284;-75
2023/03/21 10:53:54;;;;;;;15.80;12.33;;;;;;;17.20;38.26;92548.03;5067404;28;20896;-75
2023/03/21 10:56:25;;;;;;;13.40;12.00;;;;;;;17.19;38.50;92535.94;5068411;28;20229;-74
2023/03/21 10:58:51;;;;;;;13.13;11.97;;;;;;;17.39;38.16;92535.19;5068364;28;20221;-75
2023/03/21 11:01:36;;;;;;;19.90;13.13;;;;;;;17.46;38.03;92546.00;5068182;28;20259;-75
2023/03/21 11:04:11;;;;;;;15.00;12.20;;;;;;;17.27;37.83;92535.13;5068654;28;20189;-75
2023/03/21 11:06:39;;;;;;;14.43;12.97;;;;;;;17.41;38.11;92532.22;5068031;28;20213;-75
2023/03/21 11:09:20;;;;;;;18.03;14.20;;;;;;;17.32;38.11;92518.31;5067758;28;20185;-72
2023/03/21 11:12:00;;;;;;;19.23;15.10;;;;;;;17.50;38.42;92543.50;5047943;28;20221;-74
2023/03/21 11:14:43;;;;;;;19.03;14.40;;;;;;;17.11;38.93;92547.31;5045999;28;20271;-74
2023/03/21 11:17:17;;;;;;;20.83;15.03;;;;;;;17.37;38.42;92537.34;5048764;28;21050;-75
2023/03/21 11:20:09;;;;;;;16.20;14.00;;;;;;;17.56;37.58;92539.56;5051634;28;20237;-75
2023/03/21 11:22:42;;;;;;;14.40;12.87;;;;;;;16.88;38.35;92530.22;5067176;28;20191;-75
2023/03/21 11:25:18;;;;;;;17.20;14.07;;;;;;;17.20;37.74;92529.56;5067938;28;20242;-74
2023/03/21 11:27:53;;;;;;;18.27;14.50;;;;;;;16.60;40.91;92515.16;5068518;28;20284;-75
2023/03/21 11:30:22;;;;;;;19.50;15.73;;;;;;;16.83;39.92;92514.56;5068136;28;20241;-75